Time;durP1;ratioP1;P1;durP2;ratioP2;P2;SDS_P1;SDS_P2;PMS_P1;PMS_P2;Temp;Humidity;BMP_temperature;BMP_pressure;BME280_temperature;BME280_humidity;BME280_pressure;Samples;Min_cycle;Max_cycle;Signal;HPM_P1;HPM_P2
2022/03/15 00:01:23;;;;;;;10.75;9.63;;;;;;;12.12;42.44;101258.87;1814585;79;21017;-65
2022/03/15 00:03:51;;;;;;;12.03;9.85;;;;;;;12.11;42.45;101254.50;1814527;78;21151;-65
2022/03/15 00:06:18;;;;;;;10.63;9.28;;;;;;;12.11;42.47;101253.17;1814659;79;20994;-65
2022/03/15 00:08:45;;;;;;;11.53;9.48;;;;;;;12.10;42.46;101248.84;1814745;79;21230;-65
2022/03/15 00:11:12;;;;;;;11.40;9.70;;;;;;;12.09;42.47;101253.80;1814448;79;21486;-66
2022/03/15 00:13:40;;;;;;;11.68;9.23;;;;;;;12.08;42.48;101246.81;1813494;78;21030;-66
2022/03/15 00:16:08;;;;;;;10.63;9.40;;;;;;;12.07;42.48;101241.98;1814583;79;21026;-66
2022/03/15 00:18:37;;;;;;;10.20;9.13;;;;;;;12.06;42.49;101238.95;1814564;79;20982;-65
2022/03/15 00:21:09;;;;;;;11.40;9.90;;;;;;;12.05;42.48;101241.25;1814706;79;21301;-66
2022/03/15 00:23:35;;;;;;;11.57;9.88;;;;;;;12.04;42.50;101232.93;1814941;79;21432;-65
2022/03/15 00:26:02;;;;;;;12.35;9.28;;;;;;;12.03;42.51;101227.73;1814652;78;21519;-65
2022/03/15 00:28:30;;;;;;;11.97;9.70;;;;;;;12.03;42.53;101231.23;1814584;78;21634;-65
2022/03/15 00:30:58;;;;;;;11.38;9.48;;;;;;;12.02;42.52;101235.40;1813489;78;21095;-65
2022/03/15 00:33:29;;;;;;;13.15;9.38;;;;;;;12.00;42.53;101225.71;1814520;79;21218;-66
2022/03/15 00:35:59;;;;;;;11.60;9.65;;;;;;;11.99;42.54;101225.38;1814798;79;21478;-64
2022/03/15 00:38:26;;;;;;;10.88;9.25;;;;;;;12.00;42.56;101219.05;1814582;79;21006;-64
2022/03/15 00:40:54;;;;;;;11.00;9.83;;;;;;;11.98;42.58;101214.36;1814552;79;21022;-64
2022/03/15 00:43:21;;;;;;;10.30;9.20;;;;;;;11.97;42.59;101214.00;1814588;78;21037;-64
2022/03/15 00:45:49;;;;;;;11.80;10.30;;;;;;;11.96;42.59;101208.34;1814758;78;21285;-65
2022/03/15 00:48:18;;;;;;;11.10;9.43;;;;;;;11.95;42.59;101215.12;1813596;78;21136;-65
2022/03/15 00:50:46;;;;;;;13.22;9.55;;;;;;;11.95;42.61;101211.13;1814601;79;21018;-65
2022/03/15 00:53:12;;;;;;;11.00;9.60;;;;;;;11.93;42.61;101217.09;1814527;79;20991;-65
2022/03/15 00:55:39;;;;;;;12.28;9.75;;;;;;;11.92;42.62;101209.61;1814744;79;20978;-65
2022/03/15 00:58:06;;;;;;;11.05;9.48;;;;;;;11.92;42.64;101210.94;1807119;79;21230;-65
2022/03/15 01:00:35;;;;;;;11.57;9.85;;;;;;;11.92;42.62;101210.94;1814475;79;21065;-65
2022/03/15 01:03:04;;;;;;;11.28;9.33;;;;;;;11.91;42.61;101210.56;1814640;78;21482;-64
2022/03/15 01:05:32;;;;;;;12.75;10.85;;;;;;;11.91;42.63;101204.41;1794041;78;21038;-65
2022/03/15 01:07:59;;;;;;;12.20;9.73;;;;;;;11.90;42.65;101212.90;1782470;80;21002;-66
2022/03/15 01:10:28;;;;;;;12.15;9.93;;;;;;;11.88;42.67;101204.65;1782608;79;21477;-65
2022/03/15 01:12:55;;;;;;;9.83;8.55;;;;;;;11.88;42.67;101202.84;1782523;80;21014;-64
2022/03/15 01:15:24;;;;;;;11.60;10.40;;;;;;;11.87;42.67;101201.66;1782547;80;21505;-64
2022/03/15 01:17:51;;;;;;;13.40;9.85;;;;;;;11.86;42.68;101203.48;1782467;79;21057;-66
2022/03/15 01:20:18;;;;;;;12.23;9.33;;;;;;;11.85;42.71;101198.30;1789895;78;21037;-65
2022/03/15 01:22:44;;;;;;;11.08;9.58;;;;;;;11.85;42.69;101194.30;1783562;79;21129;-65
2022/03/15 01:25:12;;;;;;;12.70;9.88;;;;;;;11.84;42.72;101200.13;1782736;80;21033;-66
2022/03/15 01:27:41;;;;;;;12.13;9.75;;;;;;;11.84;42.73;101196.59;1782560;79;21056;-65
2022/03/15 01:30:08;;;;;;;11.45;9.83;;;;;;;11.83;42.73;101198.42;1782560;79;21022;-65
2022/03/15 01:32:34;;;;;;;12.33;9.88;;;;;;;11.83;42.74;101206.91;1782465;79;20982;-65
2022/03/15 01:35:04;;;;;;;13.05;10.63;;;;;;;11.81;42.75;101199.89;1782649;79;21301;-64
2022/03/15 01:37:31;;;;;;;12.33;10.50;;;;;;;11.81;42.76;101204.38;1782291;80;21075;-65
2022/03/15 01:40:00;;;;;;;11.85;9.45;;;;;;;11.80;42.76;101200.03;1783549;79;21521;-65
2022/03/15 01:42:26;;;;;;;12.37;10.55;;;;;;;11.78;42.77;101200.19;1782402;79;21537;-64
2022/03/15 01:44:55;;;;;;;11.30;9.78;;;;;;;11.78;42.77;101197.53;1782908;79;21009;-64
2022/03/15 01:47:21;;;;;;;11.65;10.00;;;;;;;11.78;42.77;101192.67;1782378;79;21236;-65
2022/03/15 01:49:48;;;;;;;13.32;10.65;;;;;;;11.77;42.79;101195.00;1782513;79;21069;-65
2022/03/15 01:52:15;;;;;;;12.35;10.70;;;;;;;11.76;42.78;101194.64;1782456;79;21037;-65
2022/03/15 01:54:43;;;;;;;14.03;10.93;;;;;;;11.76;42.79;101196.83;1772155;80;20994;-65
2022/03/15 01:57:10;;;;;;;12.88;10.28;;;;;;;11.74;42.79;101188.14;1783449;79;21577;-65
2022/03/15 01:59:38;;;;;;;14.07;11.65;;;;;;;11.74;42.80;101192.14;1782384;80;21307;-65
2022/03/15 02:02:05;;;;;;;14.23;10.75;;;;;;;11.73;42.82;101199.76;1788201;79;20986;-65
2022/03/15 02:04:36;;;;;;;13.93;11.38;;;;;;;11.73;42.82;101196.27;1807975;78;21002;-65
2022/03/15 02:07:07;;;;;;;12.78;11.03;;;;;;;11.72;42.84;101201.22;1814585;79;21679;-65
2022/03/15 02:09:34;;;;;;;12.70;11.03;;;;;;;11.71;42.83;101195.56;1814457;79;21045;-65
2022/03/15 02:12:03;;;;;;;12.47;10.82;;;;;;;11.70;42.83;101189.87;1813534;78;21497;-65
2022/03/15 02:14:35;;;;;;;12.70;10.32;;;;;;;11.69;42.84;101195.70;1782376;79;21018;-64
2022/03/15 02:17:02;;;;;;;13.53;11.12;;;;;;;11.69;42.85;101196.20;1782455;79;21541;-64
2022/03/15 02:19:29;;;;;;;13.93;11.25;;;;;;;11.68;42.85;101194.50;1782417;79;20979;-64
2022/03/15 02:22:01;;;;;;;14.65;11.90;;;;;;;11.68;42.88;101198.49;1786639;79;20998;-64
2022/03/15 02:24:24;;;;;;;15.43;11.30;;;;;;;11.68;42.88;101198.49;1792146;79;22174;-63
2022/03/15 02:26:51;;;;;;;13.90;11.05;;;;;;;11.66;42.87;101182.66;1793417;80;21014;-65
2022/03/15 02:29:19;;;;;;;12.63;10.98;;;;;;;11.66;42.87;101192.47;1794637;78;21025;-65
2022/03/15 02:31:48;;;;;;;14.20;11.70;;;;;;;11.65;42.87;101183.66;1793550;80;21056;-64
2022/03/15 02:34:19;;;;;;;14.20;11.35;;;;;;;11.64;42.89;101187.78;1793581;79;21006;-65
2022/03/15 02:36:45;;;;;;;14.33;11.12;;;;;;;11.64;42.88;101186.45;1793625;79;21127;-65
2022/03/15 02:39:13;;;;;;;14.38;11.12;;;;;;;11.62;42.89;101182.59;1815664;78;20982;-65
2022/03/15 02:41:41;;;;;;;15.32;12.35;;;;;;;11.61;42.92;101180.92;1826121;78;21006;-65
2022/03/15 02:44:09;;;;;;;15.98;11.35;;;;;;;11.61;42.90;101180.92;1826075;78;21482;-64
2022/03/15 02:46:39;;;;;;;14.87;11.75;;;;;;;11.60;42.94;101185.88;1825112;78;21041;-66
2022/03/15 02:49:09;;;;;;;14.55;11.20;;;;;;;11.59;42.91;101178.89;1826065;78;21223;-65
2022/03/15 02:51:36;;;;;;;12.93;11.28;;;;;;;11.58;42.95;101176.70;1825964;78;21002;-66
2022/03/15 02:54:08;;;;;;;15.23;12.60;;;;;;;11.57;42.93;101176.83;1826197;78;21526;-64
2022/03/15 02:56:33;;;;;;;14.38;11.40;;;;;;;11.56;42.96;101167.19;1825467;78;21087;-65
2022/03/15 02:59:01;;;;;;;14.45;12.10;;;;;;;11.56;42.96;101175.17;1826094;78;21010;-65
2022/03/15 03:01:27;;;;;;;15.60;12.25;;;;;;;11.55;42.98;101171.67;1826021;78;21218;-64
2022/03/15 03:03:54;;;;;;;14.80;12.47;;;;;;;11.54;42.98;101173.97;1824753;78;21006;-65
2022/03/15 03:06:21;;;;;;;13.90;10.98;;;;;;;11.54;43.00;101170.47;1825891;78;21040;-65
2022/03/15 03:08:49;;;;;;;15.48;12.65;;;;;;;11.53;42.99;101170.11;1825974;78;20988;-67
2022/03/15 03:11:17;;;;;;;14.63;12.40;;;;;;;11.52;42.99;101169.28;1825907;78;21006;-65
2022/03/15 03:13:47;;;;;;;14.18;11.80;;;;;;;11.51;43.01;101168.95;1826124;78;20974;-65
2022/03/15 03:16:13;;;;;;;14.47;12.23;;;;;;;11.51;43.02;101165.42;1825998;78;21060;-65
2022/03/15 03:18:40;;;;;;;13.68;12.23;;;;;;;11.51;43.00;101174.27;1825969;78;20998;-65
2022/03/15 03:21:08;;;;;;;13.03;11.60;;;;;;;11.49;43.03;101174.90;1810111;78;21490;-64
2022/03/15 03:23:37;;;;;;;14.10;12.03;;;;;;;11.48;43.04;101175.86;1793709;79;21002;-65
2022/03/15 03:26:04;;;;;;;18.52;12.75;;;;;;;11.47;43.06;101176.83;1793696;80;21497;-63
2022/03/15 03:28:39;;;;;;;13.40;11.85;;;;;;;11.47;43.06;101172.84;1793320;79;21383;-64
2022/03/15 03:31:08;;;;;;;13.85;12.30;;;;;;;11.46;43.09;101172.50;1793498;80;21036;-65
2022/03/15 03:33:37;;;;;;;14.70;12.80;;;;;;;11.46;43.07;101178.33;1793478;79;20982;-66
2022/03/15 03:36:04;;;;;;;17.65;13.13;;;;;;;11.44;43.06;101177.13;1793544;80;21017;-65
2022/03/15 03:38:31;;;;;;;13.05;11.68;;;;;;;11.44;43.08;101170.97;1807585;78;21258;-65
2022/03/15 03:40:57;;;;;;;15.13;13.08;;;;;;;11.44;43.11;101170.47;1826150;78;21009;-65
2022/03/15 03:43:24;;;;;;;17.52;14.20;;;;;;;11.43;43.09;101178.59;1826151;78;21005;-65
2022/03/15 03:45:51;;;;;;;13.53;11.97;;;;;;;11.42;43.11;101177.75;1826171;78;21056;-65
2022/03/15 03:48:19;;;;;;;15.72;13.18;;;;;;;11.41;43.11;101176.92;1826144;78;20998;-65
2022/03/15 03:50:46;;;;;;;17.42;12.88;;;;;;;11.41;43.10;101180.05;1826147;78;22079;-65
2022/03/15 03:53:12;;;;;;;16.23;13.45;;;;;;;11.41;43.12;101176.06;1826081;78;21026;-65
2022/03/15 03:55:40;;;;;;;15.78;12.90;;;;;;;11.39;43.10;101168.20;1825014;78;21001;-65
2022/03/15 03:58:07;;;;;;;13.78;12.23;;;;;;;11.39;43.13;101172.20;1826190;78;21495;-65
2022/03/15 04:00:34;;;;;;;13.55;12.05;;;;;;;11.39;43.14;101174.03;1826134;78;21017;-65
2022/03/15 04:03:02;;;;;;;13.75;12.25;;;;;;;11.39;43.13;101175.36;1826199;78;21234;-65
2022/03/15 04:05:35;;;;;;;13.78;11.80;;;;;;;11.38;43.14;101183.84;1826089;78;20959;-66
2022/03/15 04:07:59;;;;;;;15.85;12.98;;;;;;;11.38;43.14;101177.69;1826059;78;21126;-64
2022/03/15 04:10:28;;;;;;;15.10;12.85;;;;;;;11.36;43.15;101183.63;1826171;78;20998;-66
2022/03/15 04:12:55;;;;;;;14.85;11.93;;;;;;;11.35;43.16;101177.45;1824907;78;20978;-65
2022/03/15 04:15:24;;;;;;;14.47;12.33;;;;;;;11.35;43.15;101182.77;1835319;77;20985;-65
2022/03/15 04:17:51;;;;;;;13.45;12.05;;;;;;;11.35;43.17;101173.95;1859730;76;21080;-65
2022/03/15 04:20:17;;;;;;;15.65;13.28;;;;;;;11.34;43.18;101173.63;1859824;76;20994;-65
2022/03/15 04:22:44;;;;;;;12.68;11.25;;;;;;;11.33;43.18;101171.42;1854699;76;21064;-64
2022/03/15 04:25:14;;;;;;;14.47;12.13;;;;;;;11.33;43.18;101173.25;1847814;76;21033;-64
2022/03/15 04:27:40;;;;;;;14.10;11.57;;;;;;;11.33;43.18;101177.25;1847851;77;21918;-65
2022/03/15 04:30:08;;;;;;;13.68;12.28;;;;;;;11.31;43.19;101176.05;1788916;76;21549;-66
2022/03/15 04:32:37;;;;;;;15.20;11.97;;;;;;;11.32;43.19;101171.56;1782584;80;21033;-64
2022/03/15 04:35:06;;;;;;;14.53;12.63;;;;;;;11.31;43.19;101178.70;1782502;80;21068;-65
2022/03/15 04:37:34;;;;;;;15.00;12.13;;;;;;;11.31;43.19;101181.86;1790898;79;21053;-64
2022/03/15 04:40:02;;;;;;;16.93;13.03;;;;;;;11.30;43.19;101178.84;1814547;79;21254;-64
2022/03/15 04:42:28;;;;;;;14.47;11.88;;;;;;;11.29;43.22;101168.69;1814557;78;20990;-65
2022/03/15 04:44:55;;;;;;;14.83;12.33;;;;;;;11.29;43.21;101175.84;1814596;79;20979;-65
2022/03/15 04:47:23;;;;;;;13.40;12.00;;;;;;;11.29;43.23;101178.00;1813973;79;21037;-65
2022/03/15 04:49:50;;;;;;;15.35;12.05;;;;;;;11.29;43.23;101170.52;1814674;79;21017;-65
2022/03/15 04:52:17;;;;;;;13.90;11.73;;;;;;;11.29;43.23;101175.84;1814535;79;21278;-64
2022/03/15 04:54:45;;;;;;;15.08;11.93;;;;;;;11.28;43.24;101176.34;1814475;78;21062;-64
2022/03/15 04:57:12;;;;;;;13.88;11.50;;;;;;;11.29;43.24;101181.16;1814523;78;20982;-64
2022/03/15 04:59:39;;;;;;;14.53;12.33;;;;;;;11.28;43.24;101179.00;1814632;79;21499;-66
2022/03/15 05:02:05;;;;;;;13.30;11.57;;;;;;;11.29;43.24;101183.83;1813432;78;21053;-64
2022/03/15 05:04:34;;;;;;;15.08;12.70;;;;;;;11.29;43.24;101180.67;1814617;78;21010;-65
2022/03/15 05:07:02;;;;;;;14.20;11.65;;;;;;;11.29;43.27;101170.52;1814455;78;21061;-65
2022/03/15 05:09:28;;;;;;;13.08;10.88;;;;;;;11.29;43.25;101173.19;1814607;78;21458;-65
2022/03/15 05:11:55;;;;;;;13.28;11.22;;;;;;;11.28;43.27;101163.50;1814766;78;21443;-66
2022/03/15 05:14:21;;;;;;;13.35;11.88;;;;;;;11.29;43.25;101166.53;1814525;79;21549;-65
2022/03/15 05:16:48;;;;;;;13.00;11.12;;;;;;;11.29;43.26;101164.70;1832707;77;21731;-64
2022/03/15 05:19:16;;;;;;;14.65;12.35;;;;;;;11.29;43.27;101167.86;1824143;76;21518;-66
2022/03/15 05:21:44;;;;;;;14.18;11.78;;;;;;;11.30;43.28;101167.73;1796578;79;20974;-65
2022/03/15 05:24:11;;;;;;;13.53;11.93;;;;;;;11.30;43.27;101165.07;1808175;78;21348;-65
2022/03/15 05:26:38;;;;;;;13.45;11.93;;;;;;;11.31;43.27;101165.91;1808883;79;21033;-65
2022/03/15 05:29:04;;;;;;;14.80;12.50;;;;;;;11.32;43.27;101159.59;1808827;79;21226;-65
2022/03/15 05:31:31;;;;;;;15.28;12.43;;;;;;;11.33;43.27;101159.95;1808708;79;21048;-64
2022/03/15 05:33:58;;;;;;;13.50;11.55;;;;;;;11.33;43.27;101155.96;1808871;79;21052;-65
2022/03/15 05:36:25;;;;;;;14.25;11.90;;;;;;;11.34;43.27;101161.15;1805442;78;21025;-65
2022/03/15 05:38:52;;;;;;;12.70;11.40;;;;;;;11.35;43.29;101158.83;1813831;78;21014;-66
2022/03/15 05:41:18;;;;;;;13.15;11.43;;;;;;;11.36;43.27;101163.18;1820257;78;21250;-65
2022/03/15 05:43:45;;;;;;;12.80;11.45;;;;;;;11.38;43.29;101164.38;1820338;78;21033;-65
2022/03/15 05:46:12;;;;;;;13.43;11.45;;;;;;;11.39;43.28;101164.72;1820424;78;21526;-65
2022/03/15 05:48:39;;;;;;;12.50;10.82;;;;;;;11.40;43.27;101165.91;1820323;78;20978;-65
2022/03/15 05:51:05;;;;;;;13.45;12.03;;;;;;;11.42;43.27;101163.12;1820431;78;21025;-66
2022/03/15 05:53:32;;;;;;;14.13;12.18;;;;;;;11.42;43.27;101164.45;1819055;78;21228;-67
2022/03/15 05:55:58;;;;;;;13.05;11.35;;;;;;;11.44;43.27;101166.98;1820314;78;20975;-65
2022/03/15 05:58:26;;;;;;;13.35;11.35;;;;;;;11.45;43.27;101167.31;1820200;78;21021;-64
2022/03/15 06:00:55;;;;;;;13.05;11.38;;;;;;;11.46;43.27;101163.69;1820229;78;21018;-65
2022/03/15 06:03:22;;;;;;;13.80;11.57;;;;;;;11.48;43.25;101171.88;1820300;78;21017;-64
2022/03/15 06:05:52;;;;;;;13.58;11.38;;;;;;;11.48;43.26;101166.55;1820272;78;21201;-64
2022/03/15 06:08:18;;;;;;;12.50;11.15;;;;;;;11.50;43.26;101164.59;1820455;78;21040;-64
2022/03/15 06:10:45;;;;;;;12.95;11.57;;;;;;;11.51;43.27;101160.09;1819283;78;21053;-65
2022/03/15 06:13:12;;;;;;;13.05;11.40;;;;;;;11.52;43.27;101156.47;1820115;78;21057;-66
2022/03/15 06:15:39;;;;;;;12.33;10.90;;;;;;;11.53;43.28;101159.00;1820380;78;20998;-65
2022/03/15 06:18:05;;;;;;;13.72;11.12;;;;;;;11.54;43.28;101156.67;1820326;78;21208;-64
2022/03/15 06:20:34;;;;;;;12.60;11.28;;;;;;;11.56;43.29;101158.70;1820321;78;21508;-65
2022/03/15 06:23:03;;;;;;;13.55;11.48;;;;;;;11.57;43.28;101161.73;1821740;78;21060;-65
2022/03/15 06:25:30;;;;;;;13.18;11.15;;;;;;;11.59;43.30;101161.09;1825666;78;21006;-64
2022/03/15 06:27:58;;;;;;;13.22;11.40;;;;;;;11.60;43.29;101162.76;1806989;78;21005;-65
2022/03/15 06:30:25;;;;;;;12.33;10.72;;;;;;;11.62;43.32;101163.95;1825902;78;21235;-65
2022/03/15 06:32:52;;;;;;;15.00;11.28;;;;;;;11.64;43.30;101163.83;1826126;78;21493;-65
2022/03/15 06:35:19;;;;;;;12.93;10.98;;;;;;;11.66;43.32;101165.85;1826174;78;21451;-65
2022/03/15 06:37:48;;;;;;;12.13;10.63;;;;;;;11.68;43.29;101163.89;1826065;78;21013;-65
2022/03/15 06:40:25;;;;;;;13.32;11.18;;;;;;;11.69;43.31;101164.25;1825949;78;21021;-65
2022/03/15 06:42:54;;;;;;;12.20;10.95;;;;;;;11.71;43.29;101162.29;1826147;78;21282;-65
2022/03/15 06:45:22;;;;;;;12.68;11.38;;;;;;;11.73;43.28;101160.33;1824666;78;21564;-65
2022/03/15 06:47:48;;;;;;;11.78;10.35;;;;;;;11.74;43.28;101160.19;1826014;78;20970;-65
2022/03/15 06:50:15;;;;;;;12.68;11.05;;;;;;;11.74;43.29;101152.20;1825996;78;20970;-66
2022/03/15 06:52:43;;;;;;;12.68;10.80;;;;;;;11.76;43.29;101146.71;1826242;78;21505;-66
2022/03/15 06:55:10;;;;;;;12.70;11.33;;;;;;;11.77;43.28;101142.59;1826047;78;21222;-66
2022/03/15 06:57:37;;;;;;;11.88;10.28;;;;;;;11.79;43.28;101143.28;1826215;78;20982;-66
2022/03/15 07:00:06;;;;;;;12.30;11.00;;;;;;;11.81;43.29;101149.30;1826052;78;21006;-66
2022/03/15 07:02:32;;;;;;;12.23;10.38;;;;;;;11.84;43.29;101146.00;1825056;78;21496;-65
2022/03/15 07:04:59;;;;;;;14.33;11.57;;;;;;;11.86;43.29;101146.70;1826230;78;22000;-65
2022/03/15 07:07:26;;;;;;;12.07;10.72;;;;;;;11.88;43.28;101148.73;1825857;78;21143;-64
2022/03/15 07:09:54;;;;;;;12.73;11.35;;;;;;;11.90;43.27;101150.79;1826286;78;20978;-64
2022/03/15 07:12:24;;;;;;;12.88;10.38;;;;;;;11.92;43.28;101143.53;1825908;78;21490;-65
2022/03/15 07:14:52;;;;;;;11.55;10.35;;;;;;;11.95;43.27;101145.89;1826052;78;20982;-66
2022/03/15 07:17:19;;;;;;;12.58;10.25;;;;;;;11.96;43.25;101136.93;1825897;78;20987;-66
2022/03/15 07:19:46;;;;;;;11.03;9.78;;;;;;;11.97;43.28;101140.75;1825244;78;21529;-66
2022/03/15 07:22:13;;;;;;;11.28;10.08;;;;;;;12.01;43.28;101139.98;1825859;78;21033;-66
2022/03/15 07:24:40;;;;;;;12.05;10.23;;;;;;;12.03;43.28;101138.52;1825962;78;20978;-66
2022/03/15 07:27:07;;;;;;;11.85;10.63;;;;;;;12.05;43.28;101140.54;1825969;78;20978;-65
2022/03/15 07:29:34;;;;;;;12.85;10.60;;;;;;;12.07;43.27;101131.91;1825871;78;21573;-65
2022/03/15 07:32:02;;;;;;;12.23;10.82;;;;;;;12.10;43.28;101135.63;1826038;78;21850;-64
2022/03/15 07:35:30;;;;;;;12.37;10.80;;;;;;;12.17;43.28;101126.09;1790811;79;28089;-65
2022/03/15 07:37:59;;;;;;;11.75;10.35;;;;;;;12.16;43.25;101123.89;1727152;83;21021;-65
2022/03/15 07:40:27;;;;;;;12.60;11.33;;;;;;;12.21;43.22;101130.14;1727086;83;21255;-66
2022/03/15 07:42:53;;;;;;;12.43;10.68;;;;;;;12.24;43.25;101127.67;1727260;82;21588;-65
2022/03/15 07:45:22;;;;;;;10.95;9.78;;;;;;;12.26;43.21;101129.69;1727147;83;21541;-66
2022/03/15 07:47:49;;;;;;;12.45;10.08;;;;;;;12.28;43.23;101127.22;1727093;82;20998;-66
2022/03/15 07:50:18;;;;;;;12.70;10.40;;;;;;;12.32;43.19;101130.44;1727168;83;21042;-66
2022/03/15 07:52:47;;;;;;;13.20;10.98;;;;;;;12.34;43.20;101124.47;1728215;81;21853;-65
2022/03/15 07:55:16;;;;;;;12.47;10.93;;;;;;;12.37;43.20;101121.52;1727059;83;21022;-65
2022/03/15 07:57:42;;;;;;;11.08;9.95;;;;;;;12.38;43.19;101122.72;1727183;83;20970;-66
2022/03/15 08:00:10;;;;;;;13.08;11.03;;;;;;;12.41;43.20;101124.23;1727155;83;21113;-65
2022/03/15 08:02:40;;;;;;;12.05;10.53;;;;;;;12.44;43.20;101118.63;1727377;83;21085;-65
2022/03/15 08:05:08;;;;;;;12.58;10.93;;;;;;;12.46;43.21;101117.12;1727111;83;21157;-65
2022/03/15 08:07:36;;;;;;;11.35;9.98;;;;;;;12.48;43.16;101118.67;1727045;83;21493;-66
2022/03/15 08:10:08;;;;;;;11.53;10.32;;;;;;;12.51;43.14;101118.36;1695655;83;21049;-65
2022/03/15 08:12:37;;;;;;;13.40;10.80;;;;;;;12.54;43.12;101118.59;1681669;85;21071;-65
2022/03/15 08:15:09;;;;;;;11.12;9.93;;;;;;;12.57;43.13;101115.14;1681558;85;21046;-67
2022/03/15 08:17:38;;;;;;;11.35;10.13;;;;;;;12.58;43.13;101114.13;1706855;84;21070;-65
2022/03/15 08:20:06;;;;;;;12.35;10.32;;;;;;;12.62;43.10;101118.68;1721072;83;21034;-66
2022/03/15 08:22:36;;;;;;;11.12;9.93;;;;;;;12.64;43.12;101110.04;1721139;83;21097;-66
2022/03/15 08:25:06;;;;;;;12.15;10.85;;;;;;;12.66;43.11;101104.06;1721142;83;21529;-66
2022/03/15 08:27:34;;;;;;;12.37;10.63;;;;;;;12.69;43.10;101105.58;1702150;83;21069;-66
2022/03/15 08:30:00;;;;;;;11.93;10.68;;;;;;;12.72;43.16;101098.63;1692364;84;21757;-65
2022/03/15 08:32:28;;;;;;;13.98;11.95;;;;;;;12.74;43.21;101097.48;1691902;84;20994;-66
2022/03/15 08:34:56;;;;;;;14.07;11.78;;;;;;;12.76;43.20;101099.50;1687610;84;21077;-65
2022/03/15 08:37:23;;;;;;;16.00;12.23;;;;;;;12.79;43.24;101103.22;1703203;83;21600;-66
2022/03/15 08:39:49;;;;;;;12.58;10.88;;;;;;;12.82;43.22;101100.73;1713931;83;21062;-67
2022/03/15 08:42:19;;;;;;;12.88;11.45;;;;;;;12.87;43.25;101105.14;1713662;83;21065;-67
2022/03/15 08:44:47;;;;;;;12.75;10.68;;;;;;;12.90;43.25;101105.33;1692040;83;21011;-66
2022/03/15 08:47:14;;;;;;;12.23;10.38;;;;;;;12.93;43.24;101102.38;1684524;85;21050;-67
2022/03/15 08:49:41;;;;;;;11.30;10.13;;;;;;;12.96;43.28;101099.38;1684602;85;21101;-65
2022/03/15 08:52:07;;;;;;;12.95;11.45;;;;;;;13.00;43.22;101107.45;1684495;85;21113;-67
2022/03/15 08:54:36;;;;;;;14.87;11.12;;;;;;;13.02;43.17;101098.80;1684381;85;21172;-66
2022/03/15 08:57:03;;;;;;;12.53;10.90;;;;;;;13.07;43.18;101102.34;1684523;85;21042;-65
2022/03/15 08:59:31;;;;;;;13.20;11.33;;;;;;;13.11;43.12;101104.55;1684449;85;21022;-65
2022/03/15 09:01:58;;;;;;;11.73;10.30;;;;;;;13.14;43.10;101104.76;1685450;83;21038;-66
2022/03/15 09:04:25;;;;;;;12.50;11.20;;;;;;;13.18;43.07;101107.46;1684490;85;21014;-65
2022/03/15 09:06:54;;;;;;;12.23;10.98;;;;;;;13.23;43.00;101108.33;1684711;85;21550;-65
2022/03/15 09:09:24;;;;;;;12.10;10.82;;;;;;;13.28;42.96;101107.39;1684633;85;21066;-66
2022/03/15 09:11:50;;;;;;;13.00;10.38;;;;;;;13.32;42.93;101109.62;1684411;85;21121;-65
2022/03/15 09:14:16;;;;;;;12.03;10.72;;;;;;;13.36;42.90;101106.16;1684497;85;21014;-66
2022/03/15 09:16:43;;;;;;;14.87;10.98;;;;;;;13.41;42.83;101109.72;1699118;83;21038;-66
2022/03/15 09:19:11;;;;;;;12.15;10.68;;;;;;;13.46;42.78;101109.60;1686776;83;21247;-65
2022/03/15 09:21:37;;;;;;;12.40;11.05;;;;;;;13.52;42.75;101104.12;1684471;85;21052;-65
2022/03/15 09:24:05;;;;;;;10.53;9.50;;;;;;;13.58;42.82;101103.53;1684546;85;21099;-65
2022/03/15 09:26:32;;;;;;;11.90;10.15;;;;;;;13.64;43.09;101104.23;1684690;85;21613;-65
2022/03/15 09:28:59;;;;;;;11.15;10.08;;;;;;;13.70;43.25;101104.95;1684593;85;21557;-65
2022/03/15 09:31:25;;;;;;;11.10;9.95;;;;;;;13.76;43.44;101096.81;1684606;85;21157;-65
2022/03/15 09:33:52;;;;;;;11.22;9.95;;;;;;;13.83;43.58;101098.34;1684333;85;21019;-65
2022/03/15 09:36:19;;;;;;;10.82;9.70;;;;;;;13.89;43.72;101095.91;1685449;83;21058;-65
2022/03/15 09:38:45;;;;;;;11.33;10.10;;;;;;;13.96;43.77;101095.63;1684363;85;21101;-66
2022/03/15 09:41:12;;;;;;;11.93;9.80;;;;;;;14.03;43.81;101086.98;1685487;83;21050;-66
2022/03/15 09:43:41;;;;;;;10.70;9.43;;;;;;;14.09;43.84;101087.67;1707446;83;21246;-65
2022/03/15 09:46:08;;;;;;;11.68;9.85;;;;;;;14.15;43.94;101091.88;1713037;83;21007;-65
2022/03/15 09:48:37;;;;;;;11.55;10.35;;;;;;;14.24;43.92;101090.09;1700529;84;21510;-65
2022/03/15 09:51:07;;;;;;;9.98;8.98;;;;;;;14.32;43.87;101083.95;1700064;84;22111;-65
2022/03/15 09:53:37;;;;;;;10.10;9.10;;;;;;;14.40;43.90;101088.00;1679100;85;21077;-66
2022/03/15 09:56:04;;;;;;;10.65;9.28;;;;;;;14.47;43.89;101085.03;1679031;85;21169;-66
2022/03/15 09:58:31;;;;;;;11.03;9.50;;;;;;;14.57;43.78;101078.75;1679058;85;21518;-65
2022/03/15 10:00:57;;;;;;;10.10;8.98;;;;;;;14.65;43.78;101072.09;1679058;85;21058;-65
2022/03/15 10:03:25;;;;;;;9.63;8.63;;;;;;;14.73;43.74;101068.09;1678932;85;21070;-66
2022/03/15 10:05:51;;;;;;;10.48;9.45;;;;;;;14.80;43.64;101065.11;1679100;85;21609;-66
2022/03/15 10:08:18;;;;;;;9.53;8.63;;;;;;;14.91;43.60;101062.61;1679989;84;21201;-66
2022/03/15 10:10:50;;;;;;;9.68;8.68;;;;;;;14.99;43.56;101068.00;1679091;85;21098;-66
2022/03/15 10:13:17;;;;;;;9.98;8.50;;;;;;;15.07;43.50;101062.66;1679236;85;21054;-65
2022/03/15 10:15:59;;;;;;;9.15;8.23;;;;;;;15.16;43.53;101062.14;1682304;84;21597;-65
2022/03/15 10:18:25;;;;;;;9.68;8.68;;;;;;;15.27;43.43;101066.34;1707465;84;21065;-65
2022/03/15 10:20:52;;;;;;;8.68;7.78;;;;;;;15.36;43.34;101061.84;1707831;84;21507;-66
2022/03/15 10:23:29;;;;;;;10.18;8.95;;;;;;;15.44;43.28;101053.30;1707418;84;21587;-66
2022/03/15 10:25:53;;;;;;;9.18;8.08;;;;;;;15.53;43.17;101050.95;1696211;84;21105;-65
2022/03/15 10:28:19;;;;;;;9.35;8.35;;;;;;;15.64;43.12;101048.42;1678966;85;21066;-66
2022/03/15 10:30:47;;;;;;;8.65;7.75;;;;;;;15.73;43.10;101050.12;1679241;85;21542;-64
2022/03/15 10:33:17;;;;;;;10.35;8.18;;;;;;;15.85;43.01;101041.73;1679005;85;21138;-65
2022/03/15 10:35:48;;;;;;;8.50;7.70;;;;;;;15.95;42.99;101044.22;1673738;85;21320;-66
2022/03/15 10:38:15;;;;;;;9.10;8.20;;;;;;;16.05;42.94;101040.83;1671610;85;21059;-66
2022/03/15 10:40:48;;;;;;;8.60;7.75;;;;;;;16.15;42.87;101041.48;1671702;85;21046;-65
2022/03/15 10:43:27;;;;;;;8.33;7.45;;;;;;;16.25;42.87;101038.59;1672699;84;21087;-66
2022/03/15 10:45:56;;;;;;;8.65;7.75;;;;;;;16.36;42.82;101039.56;1671718;85;21239;-67
2022/03/15 10:48:30;;;;;;;8.60;7.70;;;;;;;16.47;42.78;101036.98;1689249;84;21656;-65
2022/03/15 10:51:09;;;;;;;8.78;7.22;;;;;;;16.57;42.76;101033.56;1699267;84;21087;-65
2022/03/15 10:53:44;;;;;;;8.33;7.12;;;;;;;16.66;42.74;101030.34;1699677;84;21058;-65
2022/03/15 10:56:22;;;;;;;7.50;6.50;;;;;;;16.78;42.69;101032.12;1700192;84;21031;-64
2022/03/15 10:59:01;;;;;;;7.97;7.28;;;;;;;16.88;42.67;101034.09;1699911;84;21241;-65
2022/03/15 11:01:31;;;;;;;7.33;6.37;;;;;;;16.97;42.64;101033.02;1671616;85;21031;-65
2022/03/15 11:04:06;;;;;;;7.33;6.40;;;;;;;17.08;42.60;101031.78;1671567;85;21061;-66
2022/03/15 11:06:40;;;;;;;7.10;6.40;;;;;;;17.18;42.56;101022.14;1671490;85;21114;-66
2022/03/15 11:09:28;;;;;;;8.60;6.87;;;;;;;17.28;42.52;101020.03;1671876;85;21067;-65
2022/03/15 11:12:07;;;;;;;6.97;6.28;;;;;;;17.40;42.48;101029.84;1671794;85;21436;-65
2022/03/15 11:14:54;;;;;;;7.78;6.87;;;;;;;17.50;42.46;101019.69;1671918;85;21101;-65
2022/03/15 11:17:21;;;;;;;6.05;5.53;;;;;;;17.62;42.42;101017.39;1675938;84;21087;-65